Hovedside
METAR-TAF:

METAR-TAF

Lufthavner :

Army Air Corps Middle Wallop

Middle Wallop, England

breddegrad: 51-09N, lengdegrad: 001-34W, høyde over havet: 91 m

Gjeldene værobservasjon

Denne rapporten ble laget for 35 minutter siden, klokken 14:20 UTC
Vind 10 kt fra Sør-sørvest
Temperatur 26°C
Luftfuktighet 54%
Trykk 1019 hPa
Sikt 10 km eller mer
Få skyer i en høyde av 4200 ft
Spredte skyer i en høyde av 12000 ft

METAR: EGVP 181420Z 20010KT 9999 FEW042 SCT120 26/16 Q1019 NOSIG RMK BLU BLU

Tid: 15:55 (14:55 UTC)

Varsel

Denne rapporten ble laget for 1 time og 31 minutter siden, klokken 13:24 UTC
Varsel gyldig fra 18. klokken 15 UTC til 18. klokken 24 UTC
Vind 8 kt fra Sør
Sikt 10 km eller mer
Få skyer i en høyde av 4500 ft

TAF: EGVP 181324Z 1815/1824 18008KT 9999 FEW045

Værobservasjoner og værvarsel for over 4000 flyplasser (METAR- og TAF-rapporter).

Tilgjengelige stasjoner er representert av de røde og gule prikkene på kartet.

Hold musepekeren over prikken for å se navnet på stasjonen.

Klikk så for å se værobservasjoner og -varsler.

For å forandre kartet kan du klikke på den grønne knappen med svart kryss for å zoome inn, på den grønne knappen med strek for å zoome ut, eller på de grønne pilene for å se tilstøtende kart.


METAR-TAF: